createdAt,value
2018-07-03T00:01:50.795Z,100.00
2018-07-03T00:04:19.096Z,99.71
2018-07-03T00:06:47.663Z,100.00
2018-07-03T00:09:15.974Z,100.00
2018-07-03T00:11:44.253Z,100.00
2018-07-03T00:14:12.501Z,100.00
2018-07-03T00:16:46.166Z,100.00
2018-07-03T00:19:14.412Z,100.00
2018-07-03T00:21:42.656Z,100.00
2018-07-03T00:24:10.991Z,100.00
2018-07-03T00:26:39.356Z,100.00
2018-07-03T00:29:07.636Z,100.00
2018-07-03T00:31:35.915Z,100.00
2018-07-03T00:34:04.187Z,100.00
2018-07-03T00:36:32.448Z,100.00
2018-07-03T00:39:00.711Z,100.00
2018-07-03T00:41:29.063Z,100.00
2018-07-03T00:43:57.325Z,100.00
2018-07-03T00:46:25.611Z,100.00
2018-07-03T00:48:53.881Z,100.00
2018-07-03T00:51:22.135Z,100.00
2018-07-03T00:53:50.534Z,100.00
2018-07-03T00:56:18.793Z,100.00
2018-07-03T00:58:47.044Z,100.00
2018-07-03T01:01:15.309Z,100.00
2018-07-03T01:03:43.557Z,100.00
2018-07-03T01:06:11.816Z,100.00
2018-07-03T01:08:40.149Z,100.00
2018-07-03T01:11:08.472Z,100.00
2018-07-03T01:13:36.720Z,100.00
2018-07-03T01:16:05.024Z,100.00
2018-07-03T01:18:33.276Z,100.00
2018-07-03T01:21:01.528Z,100.00
2018-07-03T01:23:29.780Z,100.00
2018-07-03T01:25:58.044Z,100.00
2018-07-03T01:28:26.288Z,100.00
2018-07-03T01:30:54.560Z,100.00
2018-07-03T01:33:22.843Z,100.00
2018-07-03T01:35:51.106Z,100.00
2018-07-03T01:38:19.396Z,100.00
2018-07-03T01:40:47.736Z,100.00
2018-07-03T01:43:15.993Z,100.00
2018-07-03T01:45:44.265Z,100.00
2018-07-03T01:48:12.559Z,100.00
2018-07-03T01:50:41.113Z,100.00
2018-07-03T01:53:09.389Z,100.00
2018-07-03T01:55:37.642Z,100.00
2018-07-03T01:58:05.917Z,100.00
2018-07-03T02:00:34.181Z,100.00
2018-07-03T02:03:02.425Z,100.00
2018-07-03T02:05:31.140Z,100.00
2018-07-03T02:07:59.417Z,100.00
2018-07-03T02:10:27.673Z,100.00
2018-07-03T02:12:55.908Z,100.00
2018-07-03T02:15:24.486Z,100.00
2018-07-03T02:17:52.735Z,100.00
2018-07-03T02:20:21.008Z,100.00
2018-07-03T02:22:49.292Z,100.00
2018-07-03T02:25:17.576Z,100.00
2018-07-03T02:27:45.856Z,100.00
2018-07-03T02:30:14.258Z,100.00
2018-07-03T02:32:42.506Z,100.00
2018-07-03T02:35:10.766Z,100.00
2018-07-03T02:37:39.028Z,100.00
2018-07-03T02:40:07.852Z,100.00
2018-07-03T02:42:36.140Z,100.00
2018-07-03T02:45:04.965Z,100.00
2018-07-03T02:47:33.199Z,100.00
2018-07-03T02:50:01.458Z,100.00
2018-07-03T02:52:29.743Z,100.00
2018-07-03T02:54:58.010Z,100.00
2018-07-03T02:57:26.263Z,100.00
2018-07-03T02:59:54.533Z,100.00
2018-07-03T03:02:23.491Z,100.00
2018-07-03T03:04:51.957Z,100.00
2018-07-03T03:07:20.237Z,100.00
2018-07-03T03:09:48.521Z,100.00
2018-07-03T03:12:16.865Z,100.00
2018-07-03T03:14:45.140Z,100.00
2018-07-03T03:17:13.389Z,100.00
2018-07-03T03:19:41.641Z,100.00
2018-07-03T03:22:09.980Z,100.00
2018-07-03T03:24:38.245Z,100.00
2018-07-03T03:27:06.611Z,100.00
2018-07-03T03:29:34.888Z,100.00
2018-07-03T03:32:03.133Z,100.00
2018-07-03T03:34:31.416Z,100.00
2018-07-03T03:36:59.704Z,100.00
2018-07-03T03:39:27.966Z,100.00
2018-07-03T03:41:56.244Z,100.00
2018-07-03T03:44:24.508Z,100.00
2018-07-03T03:46:52.837Z,100.00
2018-07-03T03:49:21.099Z,100.00
2018-07-03T03:51:49.372Z,100.00
2018-07-03T03:54:17.604Z,100.00
2018-07-03T03:56:45.869Z,100.00
2018-07-03T03:59:14.145Z,100.00
2018-07-03T04:01:42.531Z,100.00
2018-07-03T04:04:10.799Z,100.00
2018-07-03T04:06:39.113Z,100.00
2018-07-03T04:09:08.981Z,100.00
2018-07-03T04:11:37.251Z,100.00
2018-07-03T04:14:05.615Z,100.00
2018-07-03T04:16:33.953Z,100.00
2018-07-03T04:19:02.225Z,100.00
2018-07-03T04:21:30.873Z,100.00
2018-07-03T04:23:59.154Z,100.00
2018-07-03T04:26:27.405Z,100.00
2018-07-03T04:28:55.687Z,100.00
2018-07-03T04:31:23.961Z,100.00
2018-07-03T04:33:52.216Z,100.00
2018-07-03T04:36:20.492Z,100.00
2018-07-03T04:38:48.859Z,100.00
2018-07-03T04:41:17.145Z,100.00
2018-07-03T04:43:45.416Z,100.00
2018-07-03T04:46:13.656Z,100.00
2018-07-03T04:48:41.936Z,100.00
2018-07-03T04:51:10.212Z,99.22
2018-07-03T04:53:38.518Z,94.55
2018-07-03T04:56:06.794Z,94.30
2018-07-03T04:58:35.066Z,95.12
2018-07-03T05:01:03.341Z,93.41
2018-07-03T05:03:31.595Z,91.55
2018-07-03T05:05:59.847Z,91.31
2018-07-03T05:08:28.106Z,89.81
2018-07-03T05:10:56.423Z,87.63
2018-07-03T05:13:24.684Z,85.76
2018-07-03T05:15:52.937Z,84.99
2018-07-03T05:18:21.189Z,85.14
2018-07-03T05:20:49.455Z,80.39
2018-07-03T05:23:17.733Z,81.33
2018-07-03T05:25:46.007Z,80.55
2018-07-03T05:28:14.281Z,80.24
2018-07-03T05:30:42.571Z,80.48
2018-07-03T05:33:10.852Z,76.95
2018-07-03T05:35:39.117Z,76.86
2018-07-03T05:38:07.597Z,75.69
2018-07-03T05:40:35.940Z,74.00
2018-07-03T05:43:04.277Z,72.73
2018-07-03T05:45:32.519Z,73.90
2018-07-03T05:48:00.785Z,70.35
2018-07-03T05:50:29.340Z,67.75
2018-07-03T05:52:57.585Z,68.08
2018-07-03T05:55:25.842Z,68.20
2018-07-03T05:57:54.106Z,66.52
2018-07-03T06:00:22.348Z,67.75
2018-07-03T06:02:50.601Z,67.06
2018-07-03T06:05:18.852Z,64.98
2018-07-03T06:07:47.104Z,63.62
2018-07-03T06:10:15.412Z,63.39
2018-07-03T06:12:43.664Z,61.72
2018-07-03T06:15:11.948Z,60.74
2018-07-03T06:17:40.301Z,60.70
2018-07-03T06:20:08.845Z,57.90
2018-07-03T06:22:37.308Z,57.99
2018-07-03T06:25:05.985Z,56.66
2018-07-03T06:27:34.240Z,55.41
2018-07-03T06:30:02.533Z,55.71
2018-07-03T06:32:30.793Z,57.32
2018-07-03T06:34:59.595Z,56.14
2018-07-03T06:37:27.919Z,55.69
2018-07-03T06:39:56.147Z,54.20
2018-07-03T06:42:24.479Z,53.85
2018-07-03T06:44:52.824Z,53.66
2018-07-03T06:47:21.074Z,53.60
2018-07-03T06:49:49.346Z,53.06
2018-07-03T06:52:17.613Z,52.62
2018-07-03T06:54:46.524Z,51.58
2018-07-03T06:57:15.312Z,50.78
2018-07-03T06:59:43.804Z,51.74
2018-07-03T07:02:12.060Z,52.07
2018-07-03T07:04:40.336Z,50.19
2018-07-03T07:07:08.636Z,50.55
2018-07-03T07:09:37.115Z,50.09
2018-07-03T07:12:05.390Z,49.50
2018-07-03T07:14:33.656Z,47.92
2018-07-03T07:17:02.059Z,48.24
2018-07-03T07:19:30.455Z,47.63
2018-07-03T07:21:58.710Z,46.52
2018-07-03T07:24:26.969Z,47.31
2018-07-03T07:26:55.265Z,45.64
2018-07-03T07:29:23.516Z,43.97
2018-07-03T07:31:51.759Z,43.94
2018-07-03T07:34:20.085Z,43.35
2018-07-03T07:36:48.444Z,42.86
2018-07-03T07:39:17.156Z,40.97
2018-07-03T07:41:45.521Z,39.45
2018-07-03T07:44:13.855Z,39.56
2018-07-03T07:46:42.176Z,38.86
2018-07-03T07:49:10.543Z,37.48
2018-07-03T07:51:38.825Z,38.97
2018-07-03T07:54:07.089Z,38.07
2018-07-03T07:56:35.351Z,38.02
2018-07-03T07:59:03.699Z,38.47
2018-07-03T08:01:32.120Z,39.25
2018-07-03T08:04:00.554Z,36.82
2018-07-03T08:06:28.880Z,38.04
2018-07-03T08:08:57.134Z,37.78
2018-07-03T08:11:25.752Z,38.85
2018-07-03T08:13:54.065Z,38.32
2018-07-03T08:16:22.400Z,39.00
2018-07-03T08:18:50.699Z,37.67
2018-07-03T08:21:18.960Z,38.42
2018-07-03T08:23:47.231Z,37.29
2018-07-03T08:26:15.690Z,36.91
2018-07-03T08:28:43.985Z,35.67
2018-07-03T08:31:12.273Z,36.86
2018-07-03T08:33:40.563Z,34.56
2018-07-03T08:36:08.930Z,36.25
2018-07-03T08:38:37.197Z,36.67
2018-07-03T08:41:05.837Z,36.51
2018-07-03T08:43:34.258Z,35.62
2018-07-03T08:46:02.521Z,35.08
2018-07-03T08:48:31.144Z,35.41
2018-07-03T08:50:59.527Z,35.39
2018-07-03T08:53:28.037Z,35.34
2018-07-03T08:55:56.368Z,34.86
2018-07-03T08:58:24.733Z,35.60
2018-07-03T09:00:53.165Z,36.62
2018-07-03T09:03:21.400Z,37.10
2018-07-03T09:05:49.680Z,36.60
2018-07-03T09:08:17.944Z,35.35
2018-07-03T09:10:46.200Z,35.38
2018-07-03T09:13:14.497Z,37.13
2018-07-03T09:15:42.772Z,35.82
2018-07-03T09:18:11.752Z,36.46
2018-07-03T09:20:40.040Z,34.34
2018-07-03T09:23:08.325Z,30.64
2018-07-03T09:25:36.824Z,30.84
2018-07-03T09:28:05.309Z,30.25
2018-07-03T09:30:33.599Z,32.12
2018-07-03T09:33:01.946Z,26.73
2018-07-03T09:35:30.209Z,25.92
2018-07-03T09:37:58.493Z,26.96
2018-07-03T09:40:26.746Z,26.56
2018-07-03T09:42:55.039Z,28.28
2018-07-03T09:45:23.389Z,29.32
2018-07-03T09:47:51.648Z,27.47
2018-07-03T09:50:20.077Z,27.47
2018-07-03T09:52:48.365Z,29.54
2018-07-03T09:55:16.628Z,26.61
2018-07-03T09:57:44.926Z,26.06
2018-07-03T10:00:13.625Z,25.11
2018-07-03T10:02:42.617Z,27.36
2018-07-03T10:05:10.856Z,25.40
2018-07-03T10:07:39.138Z,24.89
2018-07-03T10:10:07.398Z,27.77
2018-07-03T10:12:35.692Z,27.17
2018-07-03T10:15:04.612Z,27.54
2018-07-03T10:17:32.874Z,26.99
2018-07-03T10:20:01.866Z,24.90
2018-07-03T10:22:30.124Z,26.34
2018-07-03T10:24:58.376Z,26.72
2018-07-03T10:27:26.649Z,26.69
2018-07-03T10:29:54.956Z,27.46
2018-07-03T10:32:23.578Z,28.37
2018-07-03T10:34:51.875Z,27.29
2018-07-03T10:37:20.150Z,26.20
2018-07-03T10:39:48.481Z,25.92
2018-07-03T10:42:17.529Z,26.47
2018-07-03T10:44:45.839Z,25.02
2018-07-03T10:47:14.127Z,25.80
2018-07-03T10:49:42.547Z,26.25
2018-07-03T10:52:10.873Z,24.71
2018-07-03T10:54:39.365Z,24.76
2018-07-03T10:57:08.571Z,25.82
2018-07-03T10:59:36.986Z,25.58
2018-07-03T11:02:05.324Z,24.62
2018-07-03T11:04:33.592Z,22.84
2018-07-03T11:07:01.841Z,22.93
2018-07-03T11:09:30.149Z,21.96
2018-07-03T11:11:58.628Z,22.48
2018-07-03T11:14:26.897Z,23.13
2018-07-03T11:16:55.189Z,20.29
2018-07-03T11:19:23.644Z,20.37
2018-07-03T11:21:51.915Z,18.56
2018-07-03T11:24:20.246Z,18.11
2018-07-03T11:26:48.585Z,17.74
2018-07-03T11:29:16.860Z,17.94
2018-07-03T11:31:45.166Z,15.01
2018-07-03T11:34:13.626Z,12.14
2018-07-03T11:36:42.012Z,11.42
2018-07-03T11:39:10.640Z,11.50
2018-07-03T11:41:38.960Z,11.98
2018-07-03T11:44:07.236Z,11.81
2018-07-03T11:46:35.538Z,11.16
2018-07-03T11:49:03.814Z,9.51
2018-07-03T11:51:32.271Z,10.30
2018-07-03T11:54:00.561Z,10.26
2018-07-03T11:56:28.825Z,8.83
2018-07-03T11:58:57.095Z,9.43
2018-07-03T12:01:25.733Z,9.68
2018-07-03T12:03:54.379Z,9.28
2018-07-03T12:06:22.631Z,10.15
2018-07-03T12:08:50.936Z,9.09
2018-07-03T12:11:19.234Z,8.16
2018-07-03T12:13:47.576Z,8.22
2018-07-03T12:16:16.164Z,9.09
2018-07-03T12:18:49.784Z,9.55
2018-07-03T12:21:18.165Z,8.05
2018-07-03T12:23:46.520Z,6.81
2018-07-03T12:26:14.864Z,7.44
2018-07-03T12:28:43.193Z,8.39
2018-07-03T12:31:11.608Z,8.38
2018-07-03T12:33:40.053Z,11.38
2018-07-03T12:36:09.712Z,8.99
2018-07-03T12:38:38.064Z,5.61
2018-07-03T12:41:06.492Z,6.13
2018-07-03T12:43:34.758Z,6.09
2018-07-03T12:46:03.088Z,6.75
2018-07-03T12:48:31.474Z,7.34
2018-07-03T12:50:59.761Z,7.31
2018-07-03T12:53:27.999Z,9.02
2018-07-03T12:55:56.512Z,9.60
2018-07-03T12:58:24.861Z,10.57
2018-07-03T13:00:53.225Z,9.19
2018-07-03T13:03:21.907Z,7.51
2018-07-03T13:05:50.917Z,6.93
2018-07-03T13:08:19.201Z,5.43
2018-07-03T13:10:47.606Z,5.70
2018-07-03T13:13:16.249Z,5.79
2018-07-03T13:15:44.944Z,6.45
2018-07-03T13:18:18.560Z,6.74
2018-07-03T13:20:46.909Z,8.17
2018-07-03T13:23:15.284Z,6.96
2018-07-03T13:25:43.600Z,6.54
2018-07-03T13:28:11.957Z,7.33
2018-07-03T13:30:40.320Z,8.92
2018-07-03T13:33:08.624Z,7.56
2018-07-03T13:35:37.286Z,6.46
2018-07-03T13:38:06.181Z,6.58
2018-07-03T13:40:34.696Z,5.45
2018-07-03T13:43:03.031Z,7.46
2018-07-03T13:45:31.424Z,5.27
2018-07-03T13:47:59.920Z,5.61
2018-07-03T13:50:28.318Z,5.94
2018-07-03T13:52:56.659Z,4.64
2018-07-03T13:55:24.908Z,6.16
2018-07-03T13:57:53.201Z,6.17
2018-07-03T14:00:21.721Z,5.50
2018-07-03T14:02:50.087Z,5.14
2018-07-03T14:05:18.453Z,6.11
2018-07-03T14:07:47.237Z,5.62
2018-07-03T14:10:15.538Z,5.08
2018-07-03T14:12:43.889Z,5.45
2018-07-03T14:15:12.140Z,7.81
2018-07-03T14:17:40.436Z,7.72
2018-07-03T14:20:08.712Z,8.47
2018-07-03T14:22:36.985Z,9.63
2018-07-03T14:25:05.372Z,9.68
2018-07-03T14:27:33.697Z,9.49
2018-07-03T14:30:02.121Z,8.94
2018-07-03T14:32:30.381Z,9.06
2018-07-03T14:34:58.632Z,9.23
2018-07-03T14:37:26.960Z,10.01
2018-07-03T14:39:55.417Z,10.09
2018-07-03T14:42:23.671Z,9.97
2018-07-03T14:44:51.980Z,10.26
2018-07-03T14:47:20.292Z,11.31
2018-07-03T14:49:48.658Z,12.46
2018-07-03T14:52:17.022Z,11.83
2018-07-03T14:54:45.338Z,10.27
2018-07-03T14:57:13.620Z,8.93
2018-07-03T14:59:42.055Z,9.59
2018-07-03T15:02:10.412Z,11.56
2018-07-03T15:04:38.715Z,11.92
2018-07-03T15:07:07.106Z,13.99
2018-07-03T15:09:35.505Z,13.87
2018-07-03T15:12:04.125Z,14.67
2018-07-03T15:14:33.035Z,15.46
2018-07-03T15:17:01.335Z,17.43
2018-07-03T15:19:35.014Z,15.69
2018-07-03T15:22:03.313Z,14.20
2018-07-03T15:24:31.617Z,15.16
2018-07-03T15:26:59.881Z,15.57
2018-07-03T15:29:28.228Z,16.55
2018-07-03T15:31:56.493Z,17.07
2018-07-03T15:34:24.776Z,18.24
2018-07-03T15:36:53.084Z,17.70
2018-07-03T15:39:21.353Z,18.76
2018-07-03T15:41:49.604Z,18.82
2018-07-03T15:44:29.292Z,19.65
2018-07-03T15:46:57.724Z,20.25
2018-07-03T15:49:26.012Z,20.72
2018-07-03T15:51:54.302Z,20.34
2018-07-03T15:54:22.668Z,20.62
2018-07-03T15:56:50.966Z,17.66
2018-07-03T15:59:19.333Z,15.74
2018-07-03T16:01:48.014Z,16.00
2018-07-03T16:05:29.769Z,17.70
2018-07-03T16:09:15.252Z,17.78
2018-07-03T16:11:43.577Z,18.75
2018-07-03T16:14:12.758Z,18.28
2018-07-03T16:16:41.579Z,18.53
2018-07-03T16:19:15.314Z,19.15
2018-07-03T16:21:43.634Z,18.71
2018-07-03T16:24:11.921Z,17.85
2018-07-03T16:26:40.304Z,18.93
2018-07-03T16:29:10.772Z,19.55
2018-07-03T16:31:39.459Z,20.36
2018-07-03T16:34:08.200Z,21.51
2018-07-03T16:36:36.782Z,22.57
2018-07-03T16:39:08.864Z,22.59
2018-07-03T16:41:37.368Z,23.02
2018-07-03T16:44:05.632Z,23.26
2018-07-03T16:46:33.988Z,23.68
2018-07-03T16:49:02.242Z,23.40
2018-07-03T16:51:30.504Z,23.87
2018-07-03T16:53:58.839Z,23.46
2018-07-03T16:56:27.145Z,24.35
2018-07-03T16:58:55.391Z,24.86
2018-07-03T17:01:23.762Z,25.67
2018-07-03T17:03:52.110Z,25.91
2018-07-03T17:06:20.851Z,26.39
2018-07-03T17:08:49.301Z,26.66
2018-07-03T17:11:17.566Z,26.83
2018-07-03T17:13:45.985Z,26.89
2018-07-03T17:16:14.219Z,26.72
2018-07-03T17:18:47.813Z,26.97
2018-07-03T17:21:16.113Z,27.27
2018-07-03T17:23:44.512Z,27.17
2018-07-03T17:26:12.848Z,27.72
2018-07-03T17:28:41.120Z,26.89
2018-07-03T17:31:09.425Z,27.15
2018-07-03T17:33:37.744Z,27.04
2018-07-03T17:36:06.729Z,27.19
2018-07-03T17:38:35.060Z,26.43
2018-07-03T17:41:14.649Z,26.82
2018-07-03T17:44:06.068Z,27.41
2018-07-03T17:46:34.404Z,28.50
2018-07-03T17:49:02.860Z,28.21
2018-07-03T17:51:31.399Z,28.48
2018-07-03T17:53:59.779Z,27.56
2018-07-03T17:56:28.717Z,27.93
2018-07-03T17:58:56.963Z,28.01
2018-07-03T18:01:25.229Z,27.41
2018-07-03T18:03:59.200Z,28.44
2018-07-03T18:06:27.967Z,29.14
2018-07-03T18:08:56.954Z,28.33
2018-07-03T18:11:25.259Z,28.04
2018-07-03T18:13:53.793Z,27.56
2018-07-03T18:16:22.062Z,28.32
2018-07-03T18:19:55.324Z,27.88
2018-07-03T18:22:23.677Z,27.92
2018-07-03T18:24:51.953Z,28.17
2018-07-03T18:27:20.503Z,29.14
2018-07-03T18:29:48.837Z,29.58
2018-07-03T18:32:17.265Z,29.27
2018-07-03T18:34:45.601Z,29.97
2018-07-03T18:37:13.828Z,29.93
2018-07-03T18:39:42.120Z,30.10
2018-07-03T18:42:10.452Z,30.21
2018-07-03T18:44:39.076Z,30.57
2018-07-03T18:47:07.436Z,30.84
2018-07-03T18:49:35.752Z,31.37
2018-07-03T18:52:04.012Z,32.01
2018-07-03T18:54:32.301Z,32.11
2018-07-03T18:57:00.678Z,32.29
2018-07-03T18:59:29.558Z,32.35
2018-07-03T19:01:57.859Z,33.30
2018-07-03T19:04:26.232Z,33.65
2018-07-03T19:06:55.512Z,34.25
2018-07-03T19:09:23.897Z,34.58
2018-07-03T19:11:52.450Z,34.69
2018-07-03T19:14:20.702Z,35.49
2018-07-03T19:16:49.022Z,38.71
2018-07-03T19:19:17.625Z,39.62
2018-07-03T19:21:46.037Z,39.59
2018-07-03T19:24:14.918Z,39.51
2018-07-03T19:26:44.317Z,40.15
2018-07-03T19:29:12.653Z,40.06
2018-07-03T19:31:40.913Z,41.46
2018-07-03T19:34:09.424Z,41.31
2018-07-03T19:36:37.687Z,41.71
2018-07-03T19:39:09.049Z,43.49
2018-07-03T19:41:37.520Z,43.78
2018-07-03T19:44:06.745Z,44.05
2018-07-03T19:46:35.011Z,45.00
2018-07-03T19:49:03.968Z,46.75
2018-07-03T19:51:32.265Z,46.11
2018-07-03T19:54:00.753Z,46.56
2018-07-03T19:56:29.185Z,46.87
2018-07-03T19:58:57.736Z,47.10
2018-07-03T20:01:26.098Z,48.19
2018-07-03T20:03:54.901Z,49.05
2018-07-03T20:06:23.180Z,50.81
2018-07-03T20:08:51.960Z,51.36
2018-07-03T20:11:20.320Z,50.67
2018-07-03T20:13:48.592Z,50.37
2018-07-03T20:16:17.586Z,50.99
2018-07-03T20:18:45.891Z,51.80
2018-07-03T20:21:14.151Z,53.03
2018-07-03T20:23:42.428Z,55.51
2018-07-03T20:26:11.048Z,58.11
2018-07-03T20:28:39.390Z,57.73
2018-07-03T20:31:08.116Z,57.00
2018-07-03T20:33:36.548Z,56.19
2018-07-03T20:36:04.936Z,57.09
2018-07-03T20:38:33.313Z,57.09
2018-07-03T20:41:03.062Z,57.06
2018-07-03T20:43:32.825Z,58.71
2018-07-03T20:46:01.227Z,59.70
2018-07-03T20:48:29.829Z,60.83
2018-07-03T20:50:58.622Z,59.60
2018-07-03T20:53:26.976Z,59.32
2018-07-03T20:55:55.418Z,60.30
2018-07-03T20:58:24.001Z,60.23
2018-07-03T21:00:52.300Z,56.80
2018-07-03T21:03:20.557Z,56.05
2018-07-03T21:05:49.179Z,56.58
2018-07-03T21:08:17.366Z,57.46
2018-07-03T21:10:45.716Z,57.42
2018-07-03T21:13:13.983Z,58.37
2018-07-03T21:15:42.357Z,57.47
2018-07-03T21:18:10.736Z,57.44
2018-07-03T21:20:39.118Z,56.71
2018-07-03T21:23:07.508Z,57.16
2018-07-03T21:25:35.893Z,57.50
2018-07-03T21:28:04.159Z,58.54
2018-07-03T21:30:32.592Z,60.85
2018-07-03T21:33:00.757Z,59.95
2018-07-03T21:35:29.072Z,60.63
2018-07-03T21:37:57.423Z,61.18
2018-07-03T21:40:25.737Z,61.57
2018-07-03T21:42:54.016Z,62.05
2018-07-03T21:45:22.293Z,62.98
2018-07-03T21:47:50.683Z,63.45
2018-07-03T21:50:19.041Z,63.86
2018-07-03T21:52:47.329Z,64.49
2018-07-03T21:55:15.705Z,65.69
2018-07-03T21:57:44.151Z,66.58
2018-07-03T22:00:12.465Z,66.98
2018-07-03T22:02:42.165Z,68.63
2018-07-03T22:05:11.179Z,68.65
2018-07-03T22:07:39.765Z,69.37
2018-07-03T22:10:08.117Z,70.30
2018-07-03T22:12:36.821Z,71.67
2018-07-03T22:15:05.895Z,70.43
2018-07-03T22:17:34.995Z,70.70
2018-07-03T22:20:04.293Z,72.52
2018-07-03T22:22:33.268Z,74.81
2018-07-03T22:25:02.419Z,75.30
2018-07-03T22:27:31.553Z,76.12
2018-07-03T22:30:00.217Z,76.68
2018-07-03T22:32:30.354Z,76.50
2018-07-03T22:34:59.521Z,76.37
2018-07-03T22:37:29.973Z,75.26
2018-07-03T22:39:59.517Z,75.50
2018-07-03T22:42:28.754Z,77.02
2018-07-03T22:44:57.822Z,78.13
2018-07-03T22:47:27.182Z,80.37
2018-07-03T22:49:55.442Z,80.02
2018-07-03T22:52:23.716Z,80.59
2018-07-03T22:54:52.234Z,80.79
2018-07-03T22:57:20.989Z,81.39
2018-07-03T22:59:49.317Z,81.38
2018-07-03T23:02:18.326Z,81.48
2018-07-03T23:04:46.677Z,80.07
2018-07-03T23:07:15.473Z,78.66
2018-07-03T23:09:43.713Z,78.36
2018-07-03T23:12:16.161Z,79.09
2018-07-03T23:14:44.489Z,80.36
2018-07-03T23:17:12.769Z,81.00
2018-07-03T23:19:41.035Z,81.29
2018-07-03T23:22:09.286Z,81.01
2018-07-03T23:24:37.695Z,80.39
2018-07-03T23:27:06.005Z,81.08
2018-07-03T23:29:34.441Z,81.36
2018-07-03T23:32:02.761Z,82.23
2018-07-03T23:34:31.128Z,82.51
2018-07-03T23:36:59.380Z,82.38
2018-07-03T23:39:27.670Z,82.85
2018-07-03T23:41:56.159Z,83.54
2018-07-03T23:44:24.402Z,83.19
2018-07-03T23:47:03.876Z,84.05
2018-07-03T23:49:43.516Z,83.98
2018-07-03T23:52:23.142Z,82.89
2018-07-03T23:55:02.727Z,83.11
2018-07-03T23:57:42.381Z,84.69
